Time;durP1;ratioP1;P1;durP2;ratioP2;P2;SDS_P1;SDS_P2;PMS_P1;PMS_P2;Temp;Humidity;BMP_temperature;BMP_pressure;BME280_temperature;BME280_humidity;BME280_pressure;Samples;Min_cycle;Max_cycle;Signal;HPM_P1;HPM_P2
2022/09/25 00:00:41;;;;;;;;;;;7.20;99.90;;;;;;5025968;28;20288;-94
2022/09/25 00:03:07;;;;;;;;;;;7.10;99.90;;;;;;5041837;28;19987;-95
2022/09/25 00:05:36;;;;;;;;;;;7.10;99.90;;;;;;5022509;28;19925;-94
2022/09/25 00:08:03;;;;;;;;;;;7.10;99.90;;;;;;5008426;28;19932;-94
2022/09/25 00:10:28;;;;;;;;;;;7.10;99.90;;;;;;5042913;28;19925;-94
2022/09/25 00:12:54;;;;;;;;;;;7.00;99.90;;;;;;5027415;28;19929;-96
2022/09/25 00:15:20;;;;;;;;;;;6.90;99.90;;;;;;5028440;28;19970;-95
2022/09/25 00:17:46;;;;;;;;;;;6.90;99.90;;;;;;5043344;28;19925;-93
2022/09/25 00:20:13;;;;;;;;;;;6.80;99.90;;;;;;5027458;28;19929;-93
2022/09/25 00:22:38;;;;;;;;;;;6.80;99.90;;;;;;5027708;28;19933;-94
2022/09/25 00:25:04;;;;;;;;;;;6.80;99.90;;;;;;5011531;28;19932;-94
2022/09/25 00:27:30;;;;;;;;;;;6.80;99.90;;;;;;5038377;28;19936;-94
2022/09/25 00:29:58;;;;;;;;;;;6.80;99.90;;;;;;5050751;28;19921;-94
2022/09/25 00:32:24;;;;;;;;;;;6.80;99.90;;;;;;5026965;28;19987;-93
2022/09/25 00:34:49;;;;;;;;;;;6.80;99.90;;;;;;5026953;28;20368;-93
2022/09/25 00:37:15;;;;;;;;;;;6.80;99.90;;;;;;5044448;28;19932;-94
2022/09/25 00:39:41;;;;;;;;;;;6.80;99.90;;;;;;5024357;28;19951;-93
2022/09/25 00:42:06;;;;;;;;;;;6.80;99.90;;;;;;5026545;28;19933;-94
2022/09/25 00:44:55;;;;;;;;;;;6.70;99.90;;;;;;5053449;28;19925;-94
2022/09/25 00:47:27;;;;;;;;;;;6.80;99.90;;;;;;5025048;28;19924;-95
2022/09/25 00:49:53;;;;;;;;;;;6.70;99.90;;;;;;5042323;28;19925;-94
2022/09/25 00:52:19;;;;;;;;;;;6.70;99.90;;;;;;5026590;28;19932;-94
2022/09/25 00:54:46;;;;;;;;;;;6.70;99.90;;;;;;5044707;28;19924;-94
2022/09/25 00:57:13;;;;;;;;;;;6.70;99.90;;;;;;5013544;28;19970;-92
2022/09/25 00:59:40;;;;;;;;;;;6.70;99.90;;;;;;5021969;28;19924;-94
2022/09/25 01:02:08;;;;;;;;;;;6.70;99.90;;;;;;5043717;28;19925;-94
2022/09/25 01:04:36;;;;;;;;;;;6.70;99.90;;;;;;5042505;28;19935;-93
2022/09/25 01:07:02;;;;;;;;;;;6.60;99.90;;;;;;5024381;28;19932;-94
2022/09/25 01:09:28;;;;;;;;;;;6.60;99.90;;;;;;5027228;28;19924;-93
2022/09/25 01:11:54;;;;;;;;;;;6.60;99.90;;;;;;5025487;28;19944;-94
2022/09/25 01:14:19;;;;;;;;;;;6.60;99.90;;;;;;5026816;28;19924;-92
2022/09/25 01:16:55;;;;;;;;;;;6.60;99.90;;;;;;5026493;28;19924;-94
2022/09/25 01:19:39;;;;;;;;;;;6.60;99.90;;;;;;5025922;28;19952;-92
2022/09/25 01:22:25;;;;;;;;;;;6.60;99.90;;;;;;5018417;28;19924;-94
2022/09/25 01:25:01;;;;;;;;;;;6.60;99.90;;;;;;5020706;28;19932;-94
2022/09/25 01:27:33;;;;;;;;;;;6.70;99.90;;;;;;5017426;28;19932;-93
2022/09/25 01:30:02;;;;;;;;;;;6.70;99.90;;;;;;5020492;28;19925;-93
2022/09/25 01:32:32;;;;;;;;;;;6.70;99.90;;;;;;5038218;28;20348;-93
2022/09/25 01:35:00;;;;;;;;;;;6.70;99.90;;;;;;5017304;28;19945;-93
2022/09/25 01:37:49;;;;;;;;;;;6.70;99.90;;;;;;5019237;28;20667;-94
2022/09/25 01:40:33;;;;;;;;;;;6.70;99.90;;;;;;5035192;28;19968;-93
2022/09/25 01:43:00;;;;;;;;;;;6.60;99.90;;;;;;5037623;28;19924;-94
2022/09/25 01:45:52;;;;;;;;;;;6.60;99.90;;;;;;5021861;28;19925;-93
2022/09/25 01:48:19;;;;;;;;;;;6.60;99.90;;;;;;5031282;28;19929;-93
2022/09/25 01:50:55;;;;;;;;;;;6.50;99.90;;;;;;5034799;28;19929;-94
2022/09/25 01:53:24;;;;;;;;;;;6.60;99.90;;;;;;5040707;28;19925;-93
2022/09/25 01:55:57;;;;;;;;;;;6.60;99.90;;;;;;5026373;28;19932;-95
2022/09/25 01:58:31;;;;;;;;;;;6.60;99.90;;;;;;5055954;28;19925;-93
2022/09/25 02:01:00;;;;;;;;;;;6.60;99.90;;;;;;5024012;28;19936;-92
2022/09/25 02:03:29;;;;;;;;;;;6.60;99.90;;;;;;5024057;28;19925;-94
2022/09/25 02:05:59;;;;;;;;;;;6.50;99.90;;;;;;5044628;28;19925;-92
2022/09/25 02:08:28;;;;;;;;;;;6.50;99.90;;;;;;5030617;28;19952;-94
2022/09/25 02:10:59;;;;;;;;;;;6.40;99.90;;;;;;5021870;28;19947;-94
2022/09/25 02:13:28;;;;;;;;;;;6.30;99.90;;;;;;5029785;28;19964;-94
2022/09/25 02:16:06;;;;;;;;;;;6.20;99.90;;;;;;5030741;28;19928;-93
2022/09/25 02:21:23;;;;;;;;;;;6.10;99.90;;;;;;5043571;28;19925;-93
2022/09/25 02:23:51;;;;;;;;;;;6.10;99.90;;;;;;5031216;28;19931;-94
2022/09/25 02:26:28;;;;;;;;;;;6.10;99.90;;;;;;5046197;28;19978;-94
2022/09/25 02:28:54;;;;;;;;;;;6.10;99.90;;;;;;5027384;28;19925;-95
2022/09/25 02:31:28;;;;;;;;;;;6.10;99.90;;;;;;5045945;28;19931;-94
2022/09/25 02:33:54;;;;;;;;;;;6.10;99.90;;;;;;5030785;28;20299;-95
2022/09/25 02:36:22;;;;;;;;;;;6.10;99.90;;;;;;5031281;28;19925;-93
2022/09/25 02:38:48;;;;;;;;;;;6.20;99.90;;;;;;5030074;28;19932;-96
2022/09/25 02:41:26;;;;;;;;;;;6.10;99.90;;;;;;5047051;28;19947;-93
2022/09/25 02:44:15;;;;;;;;;;;6.10;99.90;;;;;;5029542;28;19982;-94
2022/09/25 02:46:54;;;;;;;;;;;6.10;99.90;;;;;;5028774;28;19971;-94
2022/09/25 02:49:26;;;;;;;;;;;6.00;99.90;;;;;;5031025;28;19954;-94
2022/09/25 02:52:11;;;;;;;;;;;6.10;99.90;;;;;;5062633;28;19925;-94
2022/09/25 02:54:46;;;;;;;;;;;6.00;99.90;;;;;;5047234;28;19960;-94
2022/09/25 02:57:22;;;;;;;;;;;6.00;99.90;;;;;;5029992;28;19925;-93
2022/09/25 02:59:51;;;;;;;;;;;6.00;99.90;;;;;;5026058;28;19925;-95
2022/09/25 03:02:18;;;;;;;;;;;6.00;99.90;;;;;;5046135;28;19924;-94
2022/09/25 03:04:46;;;;;;;;;;;6.00;99.90;;;;;;5029442;28;19929;-93
2022/09/25 03:07:12;;;;;;;;;;;6.00;99.90;;;;;;5030249;28;19925;-95
2022/09/25 03:09:40;;;;;;;;;;;6.00;99.90;;;;;;5012174;28;19936;-94
2022/09/25 03:12:06;;;;;;;;;;;6.10;99.90;;;;;;5058996;28;19921;-92
2022/09/25 03:14:31;;;;;;;;;;;6.00;99.90;;;;;;5026706;28;19928;-93
2022/09/25 03:16:59;;;;;;;;;;;6.00;99.90;;;;;;5039943;28;19925;-94
2022/09/25 03:19:26;;;;;;;;;;;6.00;99.90;;;;;;5022750;28;20390;-94
2022/09/25 03:21:53;;;;;;;;;;;6.00;99.90;;;;;;5029194;28;19980;-94
2022/09/25 03:24:18;;;;;;;;;;;6.10;99.90;;;;;;5029849;28;19925;-94
2022/09/25 03:26:44;;;;;;;;;;;6.10;99.90;;;;;;5045463;28;19990;-94
2022/09/25 03:29:11;;;;;;;;;;;6.10;99.90;;;;;;5044226;28;20377;-94
2022/09/25 03:31:37;;;;;;;;;;;6.00;99.90;;;;;;5028864;28;19925;-93
2022/09/25 03:34:04;;;;;;;;;;;6.00;99.90;;;;;;5029454;28;19983;-94
2022/09/25 03:36:30;;;;;;;;;;;6.00;99.90;;;;;;5021363;28;19948;-94
2022/09/25 03:38:59;;;;;;;;;;;6.10;99.90;;;;;;5026546;28;19925;-94
2022/09/25 03:41:26;;;;;;;;;;;6.10;99.90;;;;;;5026539;28;20255;-93
2022/09/25 03:43:52;;;;;;;;;;;6.10;99.90;;;;;;5028584;28;19951;-94
2022/09/25 03:46:19;;;;;;;;;;;6.10;99.90;;;;;;5028531;28;19924;-94
2022/09/25 03:48:45;;;;;;;;;;;6.10;99.90;;;;;;5029438;28;19924;-93
2022/09/25 03:51:11;;;;;;;;;;;6.10;99.90;;;;;;5009385;28;19948;-94
2022/09/25 03:53:37;;;;;;;;;;;6.10;99.90;;;;;;5046074;28;19980;-94
2022/09/25 03:56:04;;;;;;;;;;;6.10;99.90;;;;;;5028475;28;19951;-94
2022/09/25 03:58:30;;;;;;;;;;;6.10;99.90;;;;;;5045722;28;19948;-94
2022/09/25 04:00:56;;;;;;;;;;;6.10;99.90;;;;;;5028099;28;19924;-93
2022/09/25 04:03:22;;;;;;;;;;;6.10;99.90;;;;;;5029228;28;19952;-93
2022/09/25 04:05:48;;;;;;;;;;;6.10;99.90;;;;;;5028050;28;19951;-93
2022/09/25 04:08:15;;;;;;;;;;;6.10;99.90;;;;;;5045326;28;19960;-94
2022/09/25 04:10:41;;;;;;;;;;;6.10;99.90;;;;;;5038595;28;19924;-93
2022/09/25 04:13:08;;;;;;;;;;;6.10;99.90;;;;;;5024995;28;19971;-95
2022/09/25 04:15:33;;;;;;;;;;;6.10;99.90;;;;;;5022677;28;19928;-96
2022/09/25 04:17:59;;;;;;;;;;;6.10;99.90;;;;;;5011849;28;19936;-94
2022/09/25 04:20:24;;;;;;;;;;;6.10;99.90;;;;;;5012313;28;19925;-92
2022/09/25 04:22:50;;;;;;;;;;;6.10;99.90;;;;;;5028048;28;20031;-93
2022/09/25 04:25:16;;;;;;;;;;;6.10;99.90;;;;;;5025170;28;19948;-93
2022/09/25 04:27:45;;;;;;;;;;;6.10;99.90;;;;;;5022223;28;19925;-91
2022/09/25 04:30:10;;;;;;;;;;;6.10;99.90;;;;;;5008414;28;19925;-93
2022/09/25 04:35:21;;;;;;;;;;;6.10;99.90;;;;;;5051380;28;19921;-94
2022/09/25 04:37:46;;;;;;;;;;;6.10;99.90;;;;;;5041852;28;19920;-92
2022/09/25 04:40:12;;;;;;;;;;;6.10;99.90;;;;;;5025245;28;19931;-91
2022/09/25 04:42:38;;;;;;;;;;;6.00;99.90;;;;;;5006221;28;19925;-92
2022/09/25 04:45:04;;;;;;;;;;;6.10;99.90;;;;;;5028273;28;19929;-93
2022/09/25 04:47:30;;;;;;;;;;;6.00;99.90;;;;;;5027378;28;19932;-92
2022/09/25 04:49:56;;;;;;;;;;;6.00;99.90;;;;;;5023920;28;19931;-92
2022/09/25 04:52:22;;;;;;;;;;;5.90;99.90;;;;;;5027348;28;19924;-93
2022/09/25 04:54:47;;;;;;;;;;;5.90;99.90;;;;;;5028712;28;19925;-92
2022/09/25 04:57:19;;;;;;;;;;;6.70;99.90;;;;;;5027750;28;19925;-92
2022/09/25 04:59:44;;;;;;;;;;;5.80;99.90;;;;;;5027543;28;19928;-93
2022/09/25 05:02:11;;;;;;;;;;;5.80;99.90;;;;;;4999667;28;19971;-94
2022/09/25 05:04:37;;;;;;;;;;;5.70;99.90;;;;;;5041133;28;19925;-93
2022/09/25 05:07:02;;;;;;;;;;;5.70;99.90;;;;;;5011813;28;19964;-92
2022/09/25 05:09:28;;;;;;;;;;;5.70;99.90;;;;;;5027352;28;19925;-92
2022/09/25 05:11:54;;;;;;;;;;;5.60;99.90;;;;;;5027764;28;19936;-93
2022/09/25 05:14:19;;;;;;;;;;;5.60;99.90;;;;;;5040688;28;20019;-93
2022/09/25 05:16:46;;;;;;;;;;;5.60;99.90;;;;;;5040335;28;19932;-92
2022/09/25 05:19:12;;;;;;;;;;;5.60;99.90;;;;;;5004469;28;19924;-93
2022/09/25 05:21:37;;;;;;;;;;;5.60;99.90;;;;;;5043781;28;19932;-93
2022/09/25 05:24:03;;;;;;;;;;;5.60;99.90;;;;;;5027374;28;19925;-94
2022/09/25 05:26:29;;;;;;;;;;;5.60;99.90;;;;;;5009654;28;19925;-94
2022/09/25 05:29:00;;;;;;;;;;;5.60;99.90;;;;;;5021303;28;19925;-94
2022/09/25 05:31:26;;;;;;;;;;;5.60;99.90;;;;;;5026461;28;20490;-93
2022/09/25 05:33:52;;;;;;;;;;;5.70;99.90;;;;;;5027770;28;19931;-92
2022/09/25 05:36:21;;;;;;;;;;;5.70;99.90;;;;;;5044422;28;19925;-93
2022/09/25 05:38:47;;;;;;;;;;;5.70;99.90;;;;;;5024361;28;19995;-93
2022/09/25 05:41:12;;;;;;;;;;;5.70;99.90;;;;;;5010292;28;19924;-92
2022/09/25 05:43:39;;;;;;;;;;;5.70;99.90;;;;;;5037959;28;19925;-91
2022/09/25 05:46:05;;;;;;;;;;;5.70;99.90;;;;;;5026488;28;19929;-93
2022/09/25 05:48:31;;;;;;;;;;;5.70;99.90;;;;;;5036458;28;19933;-93
2022/09/25 05:50:57;;;;;;;;;;;5.80;99.90;;;;;;5028563;28;19925;-92
2022/09/25 05:53:23;;;;;;;;;;;5.80;99.90;;;;;;5026281;28;19937;-92
2022/09/25 05:55:52;;;;;;;;;;;5.80;99.90;;;;;;5043784;28;19932;-93
2022/09/25 05:58:18;;;;;;;;;;;5.70;99.90;;;;;;5016158;28;19988;-92
2022/09/25 06:00:44;;;;;;;;;;;5.80;99.90;;;;;;5039721;28;19936;-94
2022/09/25 06:03:10;;;;;;;;;;;5.80;99.90;;;;;;5031354;28;19925;-94
2022/09/25 06:05:36;;;;;;;;;;;5.70;99.90;;;;;;5033471;28;19925;-92
2022/09/25 06:08:02;;;;;;;;;;;5.80;99.90;;;;;;5024012;28;19925;-93
2022/09/25 06:10:29;;;;;;;;;;;5.80;99.90;;;;;;5021100;28;19925;-93
2022/09/25 06:12:58;;;;;;;;;;;6.10;99.90;;;;;;5027745;28;19973;-93
2022/09/25 06:15:28;;;;;;;;;;;5.90;99.90;;;;;;5013242;28;19929;-93
2022/09/25 06:17:57;;;;;;;;;;;5.90;99.90;;;;;;5027228;28;19929;-93
2022/09/25 06:20:23;;;;;;;;;;;6.00;99.90;;;;;;5021341;28;19925;-93
2022/09/25 06:22:55;;;;;;;;;;;6.10;99.90;;;;;;5023307;28;19925;-94
2022/09/25 06:25:22;;;;;;;;;;;6.10;99.90;;;;;;5026883;28;19933;-93
2022/09/25 06:27:54;;;;;;;;;;;6.20;99.90;;;;;;5001354;28;19965;-94
2022/09/25 06:30:21;;;;;;;;;;;6.20;99.90;;;;;;5026986;28;19931;-93
2022/09/25 06:32:47;;;;;;;;;;;6.30;99.90;;;;;;5024056;28;19925;-92
2022/09/25 06:35:13;;;;;;;;;;;6.40;99.90;;;;;;5027060;28;20023;-93
2022/09/25 06:37:39;;;;;;;;;;;6.40;99.90;;;;;;5011458;28;19925;-93
2022/09/25 06:40:05;;;;;;;;;;;6.50;99.90;;;;;;5019381;28;20308;-93
2022/09/25 06:42:33;;;;;;;;;;;6.60;99.90;;;;;;5020915;28;19932;-93
2022/09/25 06:45:00;;;;;;;;;;;6.60;99.90;;;;;;5017321;28;19925;-93
2022/09/25 06:47:25;;;;;;;;;;;6.60;99.90;;;;;;5026523;28;19972;-92
2022/09/25 06:49:51;;;;;;;;;;;6.70;99.90;;;;;;5038556;28;20418;-92
2022/09/25 06:52:17;;;;;;;;;;;6.70;99.90;;;;;;5024867;28;19926;-93
2022/09/25 06:54:42;;;;;;;;;;;6.70;99.90;;;;;;5011941;28;19957;-93
2022/09/25 06:57:08;;;;;;;;;;;6.80;99.90;;;;;;5040090;28;19931;-93
2022/09/25 06:59:34;;;;;;;;;;;6.80;99.90;;;;;;5038419;28;19941;-94
2022/09/25 07:03:43;;;;;;;;;;;6.90;99.90;;;;;;5033795;28;20381;-93
2022/09/25 07:04:50;;;;;;;;;;;7.00;99.90;;;;;;5036471;28;19930;-92
2022/09/25 07:07:18;;;;;;;;;;;7.00;99.90;;;;;;5017395;28;19926;-93
2022/09/25 07:09:44;;;;;;;;;;;7.10;99.90;;;;;;5019253;28;20273;-94
2022/09/25 07:12:10;;;;;;;;;;;7.20;99.90;;;;;;5023243;28;19948;-93
2022/09/25 07:14:36;;;;;;;;;;;7.30;99.90;;;;;;5025353;28;19926;-93
2022/09/25 07:17:03;;;;;;;;;;;7.40;99.90;;;;;;5025242;28;19978;-93
2022/09/25 07:19:29;;;;;;;;;;;7.50;99.90;;;;;;5044372;28;19971;-93
2022/09/25 07:21:54;;;;;;;;;;;7.60;99.90;;;;;;5019758;28;19925;-94
2022/09/25 07:24:20;;;;;;;;;;;7.70;99.90;;;;;;5021101;28;19961;-92
2022/09/25 07:26:52;;;;;;;;;;;7.80;99.90;;;;;;5041639;28;19925;-92
2022/09/25 07:29:18;;;;;;;;;;;7.90;99.90;;;;;;5037373;28;20506;-93
2022/09/25 07:31:43;;;;;;;;;;;8.00;99.90;;;;;;5006677;28;19940;-95
2022/09/25 07:34:11;;;;;;;;;;;8.10;99.90;;;;;;5024413;28;19925;-93
2022/09/25 07:36:37;;;;;;;;;;;8.20;99.90;;;;;;5024811;28;19925;-92
2022/09/25 07:39:03;;;;;;;;;;;8.30;99.90;;;;;;5021307;28;19936;-92
2022/09/25 07:41:29;;;;;;;;;;;8.40;99.90;;;;;;5024621;28;19925;-92
2022/09/25 07:43:56;;;;;;;;;;;8.50;99.90;;;;;;5008052;28;19925;-93
2022/09/25 07:46:22;;;;;;;;;;;8.70;99.90;;;;;;5024123;28;19925;-92
2022/09/25 07:48:48;;;;;;;;;;;8.90;99.90;;;;;;5007504;28;19929;-91
2022/09/25 07:51:14;;;;;;;;;;;9.00;99.90;;;;;;5040321;28;19968;-92
2022/09/25 07:53:40;;;;;;;;;;;9.10;99.90;;;;;;5040234;28;19932;-92
2022/09/25 07:56:05;;;;;;;;;;;9.20;99.90;;;;;;5039524;28;19925;-94
2022/09/25 07:58:31;;;;;;;;;;;9.40;99.90;;;;;;5008061;28;19956;-93
2022/09/25 08:01:01;;;;;;;;;;;9.60;99.90;;;;;;5037654;28;19951;-94
2022/09/25 08:03:27;;;;;;;;;;;9.70;99.90;;;;;;5023666;28;19979;-93
2022/09/25 08:06:00;;;;;;;;;;;9.80;99.90;;;;;;5038712;28;19937;-93
2022/09/25 08:08:26;;;;;;;;;;;10.00;99.90;;;;;;5022223;28;19933;-92
2022/09/25 08:10:52;;;;;;;;;;;10.10;99.90;;;;;;5023169;28;19925;-92
2022/09/25 08:13:20;;;;;;;;;;;10.40;99.90;;;;;;5023949;28;19925;-93
2022/09/25 08:15:46;;;;;;;;;;;10.60;99.90;;;;;;5012962;28;19925;-93
2022/09/25 08:18:12;;;;;;;;;;;10.80;99.90;;;;;;5005645;28;19933;-94
2022/09/25 08:20:39;;;;;;;;;;;11.00;99.90;;;;;;5016805;28;19925;-94
2022/09/25 08:23:04;;;;;;;;;;;11.10;99.90;;;;;;5022522;28;20372;-92
2022/09/25 08:25:30;;;;;;;;;;;11.30;99.90;;;;;;5022136;28;19933;-93
2022/09/25 08:27:56;;;;;;;;;;;11.40;99.90;;;;;;5021155;28;19925;-94
2022/09/25 08:30:21;;;;;;;;;;;11.50;99.90;;;;;;5005579;28;19932;-92
2022/09/25 08:32:51;;;;;;;;;;;11.60;99.90;;;;;;5035551;28;19933;-91
2022/09/25 08:35:17;;;;;;;;;;;11.70;99.90;;;;;;5039104;28;19925;-91
2022/09/25 08:37:44;;;;;;;;;;;11.80;99.90;;;;;;5021960;28;19925;-91
2022/09/25 08:40:21;;;;;;;;;;;11.90;99.90;;;;;;5040148;28;19971;-93
2022/09/25 08:42:48;;;;;;;;;;;11.90;99.90;;;;;;5044331;28;19925;-92
2022/09/25 08:50:52;;;;;;;;;;;12.10;99.90;;;;;;5039811;28;19925;-94
2022/09/25 08:53:23;;;;;;;;;;;12.10;99.90;;;;;;5025429;28;19925;-94
2022/09/25 08:58:35;;;;;;;;;;;11.80;99.90;;;;;;5028107;28;20405;-91
2022/09/25 09:01:03;;;;;;;;;;;11.50;99.90;;;;;;5013403;28;19925;-92
2022/09/25 09:03:30;;;;;;;;;;;11.40;99.90;;;;;;5037652;28;19926;-93
2022/09/25 09:05:57;;;;;;;;;;;11.20;99.90;;;;;;5022306;28;19961;-93
2022/09/25 09:08:24;;;;;;;;;;;11.20;99.90;;;;;;5023108;28;19933;-92
2022/09/25 09:10:56;;;;;;;;;;;11.10;99.90;;;;;;5023237;28;19964;-91
2022/09/25 09:13:40;;;;;;;;;;;11.10;99.90;;;;;;5038796;28;19925;-92
2022/09/25 09:16:09;;;;;;;;;;;11.00;99.90;;;;;;5007690;28;19929;-93
2022/09/25 09:18:36;;;;;;;;;;;11.00;99.90;;;;;;5039326;28;19936;-94
2022/09/25 09:21:08;;;;;;;;;;;11.10;99.90;;;;;;5037333;28;20021;-92
2022/09/25 09:23:44;;;;;;;;;;;11.10;99.90;;;;;;5019903;28;20020;-92
2022/09/25 09:26:15;;;;;;;;;;;11.10;99.90;;;;;;5031944;28;20196;-93
2022/09/25 09:28:40;;;;;;;;;;;11.20;99.90;;;;;;5036024;28;20036;-91
2022/09/25 09:31:18;;;;;;;;;;;11.10;99.90;;;;;;5022125;28;19925;-89
2022/09/25 09:33:50;;;;;;;;;;;11.20;99.90;;;;;;5035401;28;20021;-91
2022/09/25 09:36:25;;;;;;;;;;;11.20;99.90;;;;;;5023027;28;19925;-90
2022/09/25 09:39:03;;;;;;;;;;;11.30;99.90;;;;;;5032191;28;19956;-90
2022/09/25 09:41:29;;;;;;;;;;;11.30;99.90;;;;;;5020038;28;19941;-92
2022/09/25 09:44:07;;;;;;;;;;;11.30;99.90;;;;;;5021038;28;19933;-92
2022/09/25 09:46:43;;;;;;;;;;;11.40;99.90;;;;;;5034647;28;19972;-93
2022/09/25 09:49:09;;;;;;;;;;;11.40;99.90;;;;;;5032873;28;19925;-93
2022/09/25 09:51:49;;;;;;;;;;;11.50;99.90;;;;;;5017452;28;20005;-94
2022/09/25 09:54:20;;;;;;;;;;;11.80;99.90;;;;;;5017556;28;19929;-93
2022/09/25 09:56:48;;;;;;;;;;;12.00;99.90;;;;;;5012511;28;19948;-93
2022/09/25 09:59:39;;;;;;;;;;;12.20;99.90;;;;;;5029974;28;19936;-93
2022/09/25 10:02:15;;;;;;;;;;;12.20;99.90;;;;;;5043724;28;19931;-94
2022/09/25 10:04:42;;;;;;;;;;;12.30;99.90;;;;;;5032112;28;19921;-92
2022/09/25 10:07:11;;;;;;;;;;;12.40;99.90;;;;;;5044055;28;19944;-93
2022/09/25 10:09:37;;;;;;;;;;;12.50;99.90;;;;;;5018383;28;19940;-93
2022/09/25 10:12:09;;;;;;;;;;;12.60;99.90;;;;;;5033281;28;20387;-95
2022/09/25 10:14:40;;;;;;;;;;;12.70;99.90;;;;;;5038110;28;19968;-95
2022/09/25 10:17:14;;;;;;;;;;;12.80;99.90;;;;;;5039214;28;19947;-95
2022/09/25 10:19:43;;;;;;;;;;;12.90;99.90;;;;;;5015247;28;19932;-94
2022/09/25 10:22:16;;;;;;;;;;;12.90;99.90;;;;;;5032491;28;19930;-93
2022/09/25 10:24:57;;;;;;;;;;;13.00;99.90;;;;;;5041788;28;19932;-95
2022/09/25 10:27:32;;;;;;;;;;;13.00;99.90;;;;;;5023231;28;19926;-94
2022/09/25 10:30:03;;;;;;;;;;;13.10;99.90;;;;;;5038901;28;19925;-94
2022/09/25 10:32:29;;;;;;;;;;;13.10;99.90;;;;;;5019938;28;19981;-95
2022/09/25 10:34:55;;;;;;;;;;;13.10;99.90;;;;;;5008132;28;20325;-94
2022/09/25 10:37:21;;;;;;;;;;;13.20;99.90;;;;;;5022240;28;19993;-95
2022/09/25 10:40:03;;;;;;;;;;;13.30;99.90;;;;;;5040434;28;19925;-95
2022/09/25 10:42:39;;;;;;;;;;;13.30;99.90;;;;;;5023085;28;20496;-95
2022/09/25 10:45:25;;;;;;;;;;;13.40;99.90;;;;;;5014153;28;19925;-95
2022/09/25 10:50:38;;;;;;;;;;;13.60;99.90;;;;;;5015598;28;19925;-96
2022/09/25 10:53:06;;;;;;;;;;;13.60;99.90;;;;;;5006812;28;19929;-94
2022/09/25 10:55:36;;;;;;;;;;;13.70;99.90;;;;;;5022551;28;19972;-96
2022/09/25 10:58:19;;;;;;;;;;;13.70;99.90;;;;;;5024240;28;19925;-94
2022/09/25 11:00:50;;;;;;;;;;;13.80;99.90;;;;;;5005673;28;19936;-94
2022/09/25 11:03:27;;;;;;;;;;;13.90;99.90;;;;;;5003525;28;19925;-93
2022/09/25 11:05:56;;;;;;;;;;;14.00;99.90;;;;;;5007157;28;19926;-95
2022/09/25 11:08:24;;;;;;;;;;;14.20;99.90;;;;;;4989882;28;20003;-93
2022/09/25 11:10:56;;;;;;;;;;;14.30;99.90;;;;;;5005613;28;20297;-91
2022/09/25 11:13:27;;;;;;;;;;;14.50;99.90;;;;;;5002138;28;19989;-93
2022/09/25 11:15:56;;;;;;;;;;;14.70;99.90;;;;;;5004596;28;19929;-95
2022/09/25 11:18:33;;;;;;;;;;;14.80;99.90;;;;;;5006646;28;19933;-95
2022/09/25 11:21:03;;;;;;;;;;;15.00;99.90;;;;;;5019457;28;19925;-95
2022/09/25 11:23:33;;;;;;;;;;;15.00;99.90;;;;;;5007667;28;19942;-96
2022/09/25 11:26:05;;;;;;;;;;;14.90;99.90;;;;;;5022302;28;19925;-94
2022/09/25 11:28:51;;;;;;;;;;;14.60;99.90;;;;;;5030443;28;19932;-93
2022/09/25 11:31:28;;;;;;;;;;;14.30;99.90;;;;;;5035004;28;19932;-93
2022/09/25 11:33:56;;;;;;;;;;;14.10;99.90;;;;;;5035969;28;19960;-93
2022/09/25 11:36:34;;;;;;;;;;;13.80;99.90;;;;;;5005416;28;19926;-93
2022/09/25 11:41:49;;;;;;;;;;;13.60;99.90;;;;;;5022942;28;20000;-96
2022/09/25 11:44:18;;;;;;;;;;;13.70;99.90;;;;;;5024743;28;19925;-93
2022/09/25 11:46:49;;;;;;;;;;;13.90;99.90;;;;;;5024402;28;19979;-94
2022/09/25 11:49:21;;;;;;;;;;;14.10;99.90;;;;;;5023138;28;19929;-94
2022/09/25 11:52:01;;;;;;;;;;;14.40;99.90;;;;;;5022294;28;19988;-94
2022/09/25 11:54:39;;;;;;;;;;;14.50;99.90;;;;;;5026314;28;19932;-93
2022/09/25 11:57:23;;;;;;;;;;;14.60;99.90;;;;;;5021472;28;19929;-95
2022/09/25 11:59:49;;;;;;;;;;;14.10;99.90;;;;;;5033706;28;19959;-94
2022/09/25 12:02:30;;;;;;;;;;;15.00;99.90;;;;;;5020483;28;20035;-94
2022/09/25 12:05:05;;;;;;;;;;;15.30;99.90;;;;;;5020253;28;19925;-95
2022/09/25 12:07:51;;;;;;;;;;;15.50;99.90;;;;;;5016032;28;19925;-95
2022/09/25 12:10:18;;;;;;;;;;;15.70;99.90;;;;;;5023560;28;19962;-96
2022/09/25 12:13:11;;;;;;;;;;;15.90;99.90;;;;;;5032118;28;19931;-95
2022/09/25 12:15:41;;;;;;;;;;;15.80;99.90;;;;;;5041635;28;20020;-94
2022/09/25 12:18:22;;;;;;;;;;;15.70;99.90;;;;;;5014382;28;19925;-96
2022/09/25 12:20:59;;;;;;;;;;;15.50;99.90;;;;;;5023606;28;19969;-95
2022/09/25 12:23:42;;;;;;;;;;;15.30;99.90;;;;;;5032212;28;20023;-95
2022/09/25 12:26:32;;;;;;;;;;;15.10;99.90;;;;;;5014741;28;19925;-94
2022/09/25 12:29:05;;;;;;;;;;;14.90;99.90;;;;;;5015600;28;20032;-96
2022/09/25 12:31:33;;;;;;;;;;;14.60;99.90;;;;;;5040193;28;19926;-95
2022/09/25 12:34:18;;;;;;;;;;;14.50;99.90;;;;;;5027073;28;19933;-94
2022/09/25 12:36:51;;;;;;;;;;;14.40;99.90;;;;;;5027331;28;20150;-95
2022/09/25 12:39:39;;;;;;;;;;;14.30;99.90;;;;;;5043002;28;19925;-94
2022/09/25 12:42:09;;;;;;;;;;;14.30;99.90;;;;;;5028345;28;19925;-95
2022/09/25 12:44:42;;;;;;;;;;;14.30;99.90;;;;;;5025772;28;20353;-95
2022/09/25 12:47:12;;;;;;;;;;;14.30;99.90;;;;;;5048709;28;19935;-96
2022/09/25 12:49:39;;;;;;;;;;;14.40;99.90;;;;;;5029834;28;19958;-96
2022/09/25 12:52:15;;;;;;;;;;;14.60;99.90;;;;;;5027909;28;19924;-96
2022/09/25 12:54:59;;;;;;;;;;;14.80;99.90;;;;;;5051869;28;19925;-95
2022/09/25 12:57:28;;;;;;;;;;;15.10;99.90;;;;;;5032004;28;19981;-95
2022/09/25 12:59:57;;;;;;;;;;;15.20;99.90;;;;;;5037241;28;19932;-96
2022/09/25 13:02:37;;;;;;;;;;;15.20;99.90;;;;;;5033773;28;19952;-94
2022/09/25 13:05:21;;;;;;;;;;;15.20;99.90;;;;;;5028827;28;19932;-94
2022/09/25 13:07:53;;;;;;;;;;;15.10;99.90;;;;;;5044345;28;19932;-94
2022/09/25 13:10:21;;;;;;;;;;;15.10;99.90;;;;;;5043568;28;19932;-93
2022/09/25 13:12:48;;;;;;;;;;;15.00;99.90;;;;;;5028088;28;19932;-93
2022/09/25 13:15:20;;;;;;;;;;;15.00;99.90;;;;;;5026528;28;19929;-95
2022/09/25 13:17:46;;;;;;;;;;;15.00;99.90;;;;;;5024560;28;20263;-94
2022/09/25 13:20:27;;;;;;;;;;;15.00;99.90;;;;;;4998314;28;20008;-94
2022/09/25 13:22:57;;;;;;;;;;;15.00;99.90;;;;;;5021360;28;19925;-94
2022/09/25 13:25:23;;;;;;;;;;;15.10;99.90;;;;;;5027650;28;19924;-95
2022/09/25 13:27:50;;;;;;;;;;;15.20;99.90;;;;;;5043536;28;19932;-94
2022/09/25 13:30:19;;;;;;;;;;;15.30;99.90;;;;;;5024446;28;19960;-92
2022/09/25 13:32:49;;;;;;;;;;;15.40;99.90;;;;;;5023101;28;19925;-92
2022/09/25 13:35:17;;;;;;;;;;;15.50;99.90;;;;;;5044666;28;19939;-94
2022/09/25 13:37:43;;;;;;;;;;;15.50;99.90;;;;;;5043786;28;19974;-95
2022/09/25 13:40:45;;;;;;;;;;;15.60;99.90;;;;;;5023175;28;19925;-94
2022/09/25 13:43:24;;;;;;;;;;;15.60;99.90;;;;;;5027811;28;19925;-94
2022/09/25 13:46:09;;;;;;;;;;;15.80;99.90;;;;;;5025570;28;19932;-95
2022/09/25 13:48:35;;;;;;;;;;;15.90;99.90;;;;;;5013495;28;20308;-93
2022/09/25 13:51:19;;;;;;;;;;;16.00;99.90;;;;;;5027125;28;19924;-94
2022/09/25 13:53:48;;;;;;;;;;;16.00;99.90;;;;;;5024802;28;19936;-95
2022/09/25 13:56:17;;;;;;;;;;;15.90;99.90;;;;;;5028731;28;19929;-95
2022/09/25 13:59:11;;;;;;;;;;;15.70;99.90;;;;;;5023948;28;19972;-91
2022/09/25 14:01:38;;;;;;;;;;;15.50;99.90;;;;;;5021129;28;19933;-90
2022/09/25 14:04:13;;;;;;;;;;;15.50;99.90;;;;;;5031908;28;19925;-93
2022/09/25 14:06:41;;;;;;;;;;;15.60;99.90;;;;;;5036606;28;20050;-95
2022/09/25 14:09:08;;;;;;;;;;;15.70;99.90;;;;;;5036279;28;19995;-94
2022/09/25 14:11:36;;;;;;;;;;;15.70;99.90;;;;;;5033141;28;19925;-96
2022/09/25 14:14:16;;;;;;;;;;;15.90;99.90;;;;;;5013597;28;19925;-95
2022/09/25 14:16:42;;;;;;;;;;;15.80;99.90;;;;;;5026187;28;19929;-96
2022/09/25 14:19:08;;;;;;;;;;;15.70;99.90;;;;;;5036198;28;19924;-94
2022/09/25 14:21:36;;;;;;;;;;;15.70;99.90;;;;;;5048145;28;19989;-96
2022/09/25 14:24:19;;;;;;;;;;;15.60;99.90;;;;;;5063671;22;19931;-90
2022/09/25 14:26:45;;;;;;;;;;;15.60;99.90;;;;;;5047940;28;19925;-89
2022/09/25 14:29:21;;;;;;;;;;;15.60;99.90;;;;;;5035453;28;19964;-90
2022/09/25 14:31:46;;;;;;;;;;;15.60;99.90;;;;;;5024202;28;19925;-90
2022/09/25 14:34:15;;;;;;;;;;;15.50;99.90;;;;;;5032957;28;20050;-91
2022/09/25 14:37:00;;;;;;;;;;;15.50;99.90;;;;;;5030435;28;19966;-89
2022/09/25 14:39:32;;;;;;;;;;;15.30;99.90;;;;;;5027747;28;19924;-89
2022/09/25 14:42:07;;;;;;;;;;;15.20;99.90;;;;;;5032532;28;19932;-89
2022/09/25 14:44:39;;;;;;;;;;;15.10;99.90;;;;;;5039629;28;19940;-89
2022/09/25 14:47:07;;;;;;;;;;;15.00;99.90;;;;;;5045274;28;19931;-89
2022/09/25 14:49:39;;;;;;;;;;;14.90;99.90;;;;;;5031872;28;19936;-89
2022/09/25 14:52:09;;;;;;;;;;;14.80;99.90;;;;;;5053257;28;19947;-89
2022/09/25 14:54:37;;;;;;;;;;;14.60;99.90;;;;;;5025872;28;19948;-89
2022/09/25 14:57:04;;;;;;;;;;;14.60;99.90;;;;;;5027446;28;19962;-89
2022/09/25 14:59:36;;;;;;;;;;;14.60;99.90;;;;;;5024815;28;19964;-89